Time;durP1;ratioP1;P1;durP2;ratioP2;P2;SDS_P1;SDS_P2;PMS_P1;PMS_P2;Temp;Humidity;BMP_temperature;BMP_pressure;BME280_temperature;BME280_humidity;BME280_pressure;Samples;Min_cycle;Max_cycle;Signal;HPM_P1;HPM_P2
2022/10/16 00:02:03;;;;;;;6.90;3.25;;;;;;;23.79;41.98;101357.59;4196822;28;20044;-66
2022/10/16 00:04:05;;;;;;;12.07;3.28;;;;;;;23.75;41.97;101366.88;4199711;28;20036;-66
2022/10/16 00:06:07;;;;;;;7.70;3.00;;;;;;;23.67;42.29;101353.50;4199997;28;20090;-66
2022/10/16 00:08:13;;;;;;;7.32;3.30;;;;;;;23.67;42.46;101359.91;4199978;28;21196;-66
2022/10/16 00:10:14;;;;;;;9.30;3.13;;;;;;;23.61;42.54;101354.63;4200598;28;20028;-66
2022/10/16 00:12:15;;;;;;;4.03;2.80;;;;;;;23.62;42.45;101362.72;4200688;28;20426;-66
2022/10/16 00:14:16;;;;;;;8.88;3.03;;;;;;;23.61;42.60;101366.63;4199843;28;20454;-68
2022/10/16 00:16:18;;;;;;;12.82;3.42;;;;;;;23.61;42.60;101369.44;4199833;28;20040;-68
2022/10/16 00:18:22;;;;;;;8.00;2.80;;;;;;;23.60;42.80;101364.97;4199730;28;20138;-66
2022/10/16 00:20:23;;;;;;;5.00;2.92;;;;;;;23.61;42.57;101357.44;4200103;28;20450;-66
2022/10/16 00:22:25;;;;;;;4.90;2.72;;;;;;;23.42;42.95;101327.38;4200474;28;20041;-66
2022/10/16 00:24:26;;;;;;;8.77;2.63;;;;;;;23.63;42.78;101364.38;4199286;28;20491;-67
2022/10/16 00:26:32;;;;;;;5.63;3.28;;;;;;;23.40;42.82;101329.59;4200279;28;20090;-66
2022/10/16 00:28:33;;;;;;;5.45;3.15;;;;;;;23.61;42.63;101355.47;4199847;28;20036;-65
2022/10/16 00:30:38;;;;;;;5.97;2.95;;;;;;;23.60;42.87;101359.38;4200195;28;20040;-66
2022/10/16 00:32:42;;;;;;;4.57;2.72;;;;;;;23.59;43.01;101352.97;4200276;28;20037;-67
2022/10/16 00:34:43;;;;;;;8.82;3.08;;;;;;;23.61;42.98;101354.63;4199306;28;20495;-66
2022/10/16 00:36:45;;;;;;;7.38;2.97;;;;;;;23.62;42.64;101359.09;4199239;28;20036;-66
2022/10/16 00:38:46;;;;;;;5.03;2.88;;;;;;;23.62;43.00;101361.88;4200386;28;20041;-64
2022/10/16 00:40:50;;;;;;;6.85;3.40;;;;;;;23.49;43.05;101352.19;4197384;28;20458;-65
2022/10/16 00:42:54;;;;;;;7.00;2.92;;;;;;;23.61;43.14;101371.41;4197674;28;20036;-66
2022/10/16 00:44:57;;;;;;;6.70;3.07;;;;;;;23.61;43.08;101369.44;4198937;28;20106;-66
2022/10/16 00:47:04;;;;;;;8.88;2.83;;;;;;;23.60;42.83;101364.97;4199814;28;20078;-65
2022/10/16 00:49:17;;;;;;;7.22;3.38;;;;;;;23.60;43.08;101364.97;4195882;28;20041;-66
2022/10/16 00:51:25;;;;;;;6.88;2.70;;;;;;;23.56;43.20;101358.28;4189646;28;20028;-65
2022/10/16 00:53:27;;;;;;;5.32;2.97;;;;;;;23.57;43.11;101359.97;4199392;28;20045;-64
2022/10/16 00:55:30;;;;;;;6.25;3.05;;;;;;;23.52;42.89;101362.78;4199437;28;20052;-65
2022/10/16 00:57:31;;;;;;;5.97;2.97;;;;;;;23.63;43.26;101374.72;4198472;28;20045;-66
2022/10/16 00:59:41;;;;;;;7.03;2.72;;;;;;;23.43;43.18;101348.59;4209089;28;20044;-66
2022/10/16 01:01:42;;;;;;;8.25;2.53;;;;;;;23.63;43.22;101375.56;4198774;28;20036;-64
2022/10/16 01:03:43;;;;;;;14.07;3.15;;;;;;;23.62;43.05;101373.88;4199580;28;20037;-65
2022/10/16 01:05:54;;;;;;;5.95;2.67;;;;;;;23.62;43.11;101375.84;4198398;28;20036;-64
2022/10/16 01:08:18;;;;;;;9.70;3.13;;;;;;;23.63;43.42;101381.13;4193623;28;20037;-66
2022/10/16 01:10:40;;;;;;;7.30;2.80;;;;;;;23.63;43.06;101375.56;4199302;28;20102;-66
2022/10/16 01:12:53;;;;;;;3.72;2.70;;;;;;;23.62;43.45;101378.66;4198804;28;20102;-67
2022/10/16 01:15:04;;;;;;;4.68;3.00;;;;;;;23.63;43.09;101381.13;4197456;28;20041;-66
2022/10/16 01:17:12;;;;;;;8.65;3.28;;;;;;;23.53;43.24;101358.88;4198114;28;20048;-67
2022/10/16 01:19:38;;;;;;;7.43;2.88;;;;;;;23.62;43.37;101370.25;4192803;28;20082;-66
2022/10/16 01:21:44;;;;;;;5.22;2.83;;;;;;;23.48;43.44;101358.91;4199017;28;20102;-67
2022/10/16 01:23:52;;;;;;;15.88;3.40;;;;;;;23.65;43.36;101378.09;4196761;28;20369;-67
2022/10/16 01:26:10;;;;;;;3.85;2.60;;;;;;;23.63;43.31;101389.53;4198593;28;20045;-66
2022/10/16 01:28:15;;;;;;;4.50;3.20;;;;;;;23.63;43.65;101389.53;4198428;28;20404;-66
2022/10/16 01:30:23;;;;;;;5.32;2.85;;;;;;;23.51;43.55;101367.53;4194927;28;20033;-67
2022/10/16 01:32:36;;;;;;;3.78;2.55;;;;;;;23.56;43.58;101375.06;4194296;28;20086;-66
2022/10/16 01:34:47;;;;;;;5.68;2.55;;;;;;;23.65;43.32;101389.28;4182619;28;20029;-64
2022/10/16 01:36:57;;;;;;;5.32;2.92;;;;;;;23.62;43.43;101385.06;4210065;28;20093;-66
2022/10/16 01:39:01;;;;;;;5.22;3.28;;;;;;;23.66;43.50;101396.53;4195577;28;20028;-64
2022/10/16 01:41:33;;;;;;;6.78;3.15;;;;;;;23.64;43.35;101398.72;4195002;28;20101;-65
2022/10/16 01:43:44;;;;;;;10.77;3.60;;;;;;;23.64;43.64;101391.25;4187505;28;20048;-66
2022/10/16 01:45:46;;;;;;;7.72;2.80;;;;;;;23.68;43.58;101408.25;4198025;28;20040;-65
2022/10/16 01:47:49;;;;;;;5.38;2.90;;;;;;;23.66;43.42;101408.53;4199140;28;20480;-65
2022/10/16 01:49:56;;;;;;;7.90;2.80;;;;;;;23.66;43.58;101402.13;4199379;28;20098;-65
2022/10/16 01:52:04;;;;;;;7.88;3.28;;;;;;;23.62;43.53;101417.75;4198172;28;20041;-64
2022/10/16 01:54:09;;;;;;;6.82;3.03;;;;;;;23.65;43.71;101406.06;4198953;28;20483;-65
2022/10/16 01:56:15;;;;;;;6.15;2.75;;;;;;;23.25;43.94;101347.28;4197470;28;20529;-65
2022/10/16 01:58:16;;;;;;;4.43;3.10;;;;;;;23.48;43.66;101379.28;4198425;28;20028;-65
2022/10/16 02:00:20;;;;;;;4.97;2.40;;;;;;;23.65;43.88;101412.47;4198753;28;20045;-66
2022/10/16 02:02:22;;;;;;;4.47;2.88;;;;;;;23.65;43.63;101412.47;4198934;28;20086;-66
2022/10/16 02:04:32;;;;;;;153.77;17.20;;;;;;;23.66;43.56;101414.13;4198346;28;20044;-65
2022/10/16 02:06:35;;;;;;;6.68;2.95;;;;;;;23.68;43.94;101411.88;4199254;28;20036;-67
2022/10/16 02:08:38;;;;;;;16.42;3.92;;;;;;;23.75;43.77;101411.56;4198760;28;20073;-66
2022/10/16 02:10:40;;;;;;;15.20;3.20;;;;;;;23.79;43.99;101412.66;4194438;28;20049;-67
2022/10/16 02:12:48;;;;;;;11.02;3.50;;;;;;;23.80;43.45;101409.56;4187028;28;20095;-67
2022/10/16 02:14:52;;;;;;;9.20;2.97;;;;;;;23.88;43.33;101421.28;4182240;28;20033;-67
2022/10/16 02:16:54;;;;;;;12.50;3.35;;;;;;;23.86;43.31;101417.91;4196914;28;20044;-66
2022/10/16 02:18:55;;;;;;;5.45;3.00;;;;;;;23.73;43.32;101403.50;4198076;28;20040;-66
2022/10/16 02:21:01;;;;;;;7.22;3.38;;;;;;;23.80;43.32;101415.16;4198553;28;20090;-67
2022/10/16 02:23:05;;;;;;;5.88;3.10;;;;;;;23.91;43.47;101429.91;4182362;28;20090;-66
2022/10/16 02:25:20;;;;;;;7.03;2.75;;;;;;;23.93;43.32;101427.66;4181793;28;20087;-66
2022/10/16 02:27:37;;;;;;;5.72;3.00;;;;;;;23.95;43.26;101428.19;4191094;28;20086;-65
2022/10/16 02:29:50;;;;;;;5.47;2.97;;;;;;;23.98;43.19;101432.38;4195739;28;20044;-65
2022/10/16 02:32:00;;;;;;;5.35;3.15;;;;;;;24.00;43.06;101430.13;4197722;28;20438;-66
2022/10/16 02:34:04;;;;;;;8.25;3.20;;;;;;;24.00;43.12;101441.31;4194439;28;20483;-65
2022/10/16 02:36:07;;;;;;;7.43;3.33;;;;;;;24.02;42.95;101439.06;4197406;28;20037;-67
2022/10/16 02:38:09;;;;;;;7.18;2.85;;;;;;;24.03;43.23;101438.78;4196053;28;20465;-67
2022/10/16 02:40:14;;;;;;;6.20;2.95;;;;;;;24.04;43.26;101442.38;4197154;28;20041;-67
2022/10/16 02:42:18;;;;;;;8.00;3.15;;;;;;;24.01;43.20;101429.00;4195435;28;20425;-67
2022/10/16 02:44:19;;;;;;;5.80;2.70;;;;;;;23.86;43.06;101401.16;4198086;28;20086;-65
2022/10/16 02:46:21;;;;;;;4.45;2.70;;;;;;;24.04;43.32;101436.81;4197702;28;20036;-65
2022/10/16 02:48:28;;;;;;;4.80;2.70;;;;;;;24.06;43.03;101434.56;4195067;28;20450;-66
2022/10/16 02:50:29;;;;;;;6.22;3.10;;;;;;;23.94;43.21;101409.75;4181644;28;20028;-66
2022/10/16 02:52:40;;;;;;;7.25;3.22;;;;;;;24.06;43.10;101431.78;4181662;28;20074;-66
2022/10/16 02:54:41;;;;;;;9.50;2.83;;;;;;;24.06;43.36;101428.97;4181274;28;20055;-67
2022/10/16 02:56:48;;;;;;;5.75;2.83;;;;;;;24.06;43.02;101429.81;4181083;28;20045;-67
2022/10/16 02:58:55;;;;;;;5.15;2.70;;;;;;;24.09;43.00;101431.16;4181414;28;20037;-67
2022/10/16 03:00:56;;;;;;;6.32;2.90;;;;;;;24.09;43.13;101429.22;4191990;28;20056;-66
2022/10/16 03:03:00;;;;;;;6.50;3.20;;;;;;;24.09;42.99;101429.22;4201183;28;20438;-67
2022/10/16 03:05:02;;;;;;;3.17;2.23;;;;;;;24.09;42.86;101433.97;4197450;28;20036;-66
2022/10/16 03:07:03;;;;;;;6.45;2.67;;;;;;;24.08;43.25;101427.53;4197960;28;20295;-66
2022/10/16 03:09:04;;;;;;;6.28;2.83;;;;;;;24.08;43.13;101432.31;4197830;28;20040;-66
2022/10/16 03:11:05;;;;;;;5.03;2.33;;;;;;;24.07;43.00;101436.22;4197671;28;20040;-67
2022/10/16 03:13:07;;;;;;;6.68;3.00;;;;;;;24.08;43.32;101421.13;4197794;28;20430;-66
2022/10/16 03:15:08;;;;;;;6.20;2.50;;;;;;;24.07;43.38;101430.63;4196997;28;20090;-66
2022/10/16 03:17:10;;;;;;;4.15;2.65;;;;;;;24.06;43.14;101424.22;4197820;28;20041;-67
2022/10/16 03:19:13;;;;;;;4.93;2.80;;;;;;;24.06;43.47;101420.59;4196737;28;20053;-67
2022/10/16 03:21:14;;;;;;;5.72;2.83;;;;;;;24.06;43.29;101418.63;4196521;28;20048;-67
2022/10/16 03:23:16;;;;;;;3.50;2.80;;;;;;;24.04;43.52;101420.84;4208786;28;20052;-66
2022/10/16 03:25:17;;;;;;;4.47;2.90;;;;;;;24.07;43.30;101419.47;4213842;28;20028;-65
2022/10/16 03:27:18;;;;;;;4.07;2.92;;;;;;;24.06;43.42;101415.00;4214547;28;20036;-66
2022/10/16 03:29:22;;;;;;;3.70;2.85;;;;;;;24.07;43.26;101419.47;4214101;28;20081;-66
2022/10/16 03:31:24;;;;;;;3.67;2.97;;;;;;;24.07;43.29;101419.47;4202250;28;20036;-66
2022/10/16 03:33:25;;;;;;;3.65;2.60;;;;;;;24.05;43.22;101411.38;4197027;28;20036;-66
2022/10/16 03:35:29;;;;;;;3.53;2.65;;;;;;;24.07;43.40;101419.47;4197841;28;20040;-66
2022/10/16 03:37:31;;;;;;;3.67;2.40;;;;;;;24.07;43.17;101411.91;4197477;28;20093;-66
2022/10/16 03:39:35;;;;;;;4.63;2.78;;;;;;;24.03;43.29;101407.19;4195664;28;20491;-66
2022/10/16 03:41:36;;;;;;;8.60;3.17;;;;;;;24.09;43.08;101411.59;4196639;28;20045;-66
2022/10/16 03:43:38;;;;;;;4.22;3.03;;;;;;;23.97;43.30;101394.38;4209770;28;20113;-66
2022/10/16 03:45:39;;;;;;;6.45;3.22;;;;;;;24.07;43.37;101420.28;4213413;28;20467;-66
2022/10/16 03:47:41;;;;;;;6.18;2.78;;;;;;;24.02;42.96;101399.94;4198477;28;20555;-67
2022/10/16 03:49:42;;;;;;;4.95;2.55;;;;;;;24.07;43.33;101417.50;4197380;28;20540;-67
2022/10/16 03:51:43;;;;;;;4.25;2.42;;;;;;;24.08;43.26;101415.53;4197943;28;21156;-66
2022/10/16 03:53:44;;;;;;;4.75;2.95;;;;;;;24.08;43.18;101418.31;4197725;28;20098;-66
2022/10/16 03:55:46;;;;;;;3.78;2.80;;;;;;;24.07;43.29;101413.88;4197173;28;20032;-66
2022/10/16 03:57:50;;;;;;;5.40;3.22;;;;;;;24.08;43.38;101415.53;4195725;28;20032;-67
2022/10/16 03:59:51;;;;;;;4.47;2.75;;;;;;;24.08;43.01;101412.72;4192796;28;20044;-66
2022/10/16 04:01:52;;;;;;;4.07;2.75;;;;;;;24.04;43.09;101408.84;4180671;28;20067;-67
2022/10/16 04:03:53;;;;;;;3.28;2.60;;;;;;;24.03;43.50;101407.19;4182387;28;20045;-66
2022/10/16 04:05:55;;;;;;;5.63;2.97;;;;;;;24.08;43.45;101421.13;4180806;28;20045;-67
2022/10/16 04:07:56;;;;;;;5.30;2.90;;;;;;;24.08;43.36;101415.53;4180968;28;20459;-66
2022/10/16 04:09:58;;;;;;;6.72;2.92;;;;;;;24.07;43.21;101422.25;4208675;28;20044;-66
2022/10/16 04:12:00;;;;;;;5.88;3.10;;;;;;;24.04;43.35;101417.22;4213832;28;20043;-66
2022/10/16 04:14:01;;;;;;;3.92;2.70;;;;;;;24.08;43.36;101421.13;4213778;28;20490;-66
2022/10/16 04:16:02;;;;;;;4.93;2.40;;;;;;;24.07;43.13;101409.09;4200119;28;20045;-66
2022/10/16 04:18:04;;;;;;;3.72;2.50;;;;;;;24.07;43.14;101402.69;4196351;28;20041;-66
2022/10/16 04:20:06;;;;;;;4.88;3.13;;;;;;;24.04;43.22;101415.28;4196152;28;20045;-66
2022/10/16 04:22:07;;;;;;;5.60;2.92;;;;;;;23.98;43.29;101404.44;4187815;28;20446;-66
2022/10/16 04:24:10;;;;;;;4.30;2.50;;;;;;;24.06;43.36;101407.44;4195760;28;20040;-66
2022/10/16 04:26:12;;;;;;;4.28;2.53;;;;;;;24.08;43.18;101412.72;4196242;28;20040;-66
2022/10/16 04:28:13;;;;;;;3.83;2.58;;;;;;;24.02;43.21;101405.53;4197413;28;20078;-66
2022/10/16 04:30:14;;;;;;;4.15;2.67;;;;;;;24.06;43.26;101412.19;4197159;28;20368;-66
2022/10/16 04:32:16;;;;;;;4.68;2.50;;;;;;;24.05;43.27;101411.38;4197414;28;20037;-67
2022/10/16 04:34:17;;;;;;;5.32;2.45;;;;;;;24.05;43.24;101404.91;4197220;28;20032;-67
2022/10/16 04:36:18;;;;;;;4.38;2.85;;;;;;;24.04;43.32;101411.63;4196811;28;20036;-67
2022/10/16 04:38:19;;;;;;;4.70;2.63;;;;;;;24.04;43.41;101408.84;4197145;28;20094;-67
2022/10/16 04:40:21;;;;;;;3.13;2.33;;;;;;;24.03;43.67;101402.44;4196842;28;20437;-68
2022/10/16 04:42:22;;;;;;;6.30;2.63;;;;;;;24.04;43.30;101400.47;4195407;28;20036;-68
2022/10/16 04:44:23;;;;;;;4.85;2.58;;;;;;;24.04;43.48;101404.09;4198811;28;20044;-67
2022/10/16 04:46:27;;;;;;;3.58;2.50;;;;;;;24.04;43.09;101408.84;4213522;28;20085;-67
2022/10/16 04:48:29;;;;;;;4.43;2.58;;;;;;;24.00;43.43;101402.16;4213510;28;20099;-65
2022/10/16 04:50:33;;;;;;;4.28;2.42;;;;;;;24.03;43.64;101407.19;4215210;28;20048;-65
2022/10/16 04:52:34;;;;;;;3.95;2.38;;;;;;;23.93;43.33;101393.28;4216965;28;20024;-66
2022/10/16 04:54:35;;;;;;;4.03;2.50;;;;;;;24.04;43.40;101411.63;4216218;28;20086;-66
2022/10/16 04:56:42;;;;;;;4.55;2.78;;;;;;;24.03;43.45;101412.78;4216485;28;20036;-66
2022/10/16 04:58:47;;;;;;;5.03;2.80;;;;;;;24.03;43.49;101410.81;4216397;28;20044;-66
2022/10/16 05:00:51;;;;;;;5.20;2.73;;;;;;;23.86;43.43;101376.00;4215663;28;20479;-66
2022/10/16 05:02:52;;;;;;;5.22;2.78;;;;;;;24.03;43.33;101404.38;4206985;28;20037;-66
2022/10/16 05:04:56;;;;;;;6.72;2.40;;;;;;;24.03;43.57;101404.38;4197774;28;20089;-66
2022/10/16 05:06:57;;;;;;;4.05;2.60;;;;;;;24.03;43.51;101412.78;4202767;28;20040;-66
2022/10/16 05:08:59;;;;;;;5.32;2.70;;;;;;;23.88;43.32;101393.31;4216159;28;20093;-66
2022/10/16 05:11:01;;;;;;;3.55;2.58;;;;;;;24.03;43.43;101412.78;4216142;28;20102;-66
2022/10/16 05:13:03;;;;;;;3.58;2.42;;;;;;;24.03;43.39;101421.16;4184715;28;20118;-66
2022/10/16 05:15:05;;;;;;;6.93;2.90;;;;;;;24.01;43.34;101413.06;4193103;28;20121;-66
2022/10/16 05:17:12;;;;;;;4.43;2.75;;;;;;;21.18;43.35;100952.75;4184332;28;20041;-66
2022/10/16 05:19:13;;;;;;;3.72;2.67;;;;;;;24.00;43.56;101414.19;4196357;28;20078;-66
2022/10/16 05:21:18;;;;;;;3.38;2.60;;;;;;;23.90;43.39;101403.06;4198788;28;20040;-66
2022/10/16 05:23:19;;;;;;;3.30;2.53;;;;;;;24.02;43.33;101425.09;4197044;28;20045;-66
2022/10/16 05:25:20;;;;;;;5.45;3.13;;;;;;;23.99;43.49;101412.50;4197323;28;20094;-66
2022/10/16 05:27:21;;;;;;;4.55;2.88;;;;;;;24.02;43.42;101411.13;4192540;28;20048;-66
2022/10/16 05:29:23;;;;;;;5.15;2.75;;;;;;;23.48;43.31;101328.16;4187714;28;20041;-66
2022/10/16 05:31:27;;;;;;;5.22;2.92;;;;;;;24.01;43.33;101415.88;4198823;28;20044;-66
2022/10/16 05:33:28;;;;;;;4.53;2.80;;;;;;;24.00;43.47;101400.19;4197642;28;20040;-66
2022/10/16 05:35:30;;;;;;;4.22;2.85;;;;;;;23.84;43.57;101388.31;4199075;28;20662;-66
2022/10/16 05:37:31;;;;;;;3.58;2.78;;;;;;;23.89;43.44;101378.22;4199316;28;20074;-66
2022/10/16 05:39:32;;;;;;;5.00;2.78;;;;;;;24.01;43.30;101404.69;4199142;28;20032;-66
2022/10/16 05:41:34;;;;;;;6.25;2.80;;;;;;;24.00;43.56;101402.16;4197604;28;20086;-66
2022/10/16 05:43:35;;;;;;;5.43;2.95;;;;;;;23.90;43.48;101388.28;4190836;28;20083;-66
2022/10/16 05:45:36;;;;;;;4.80;3.00;;;;;;;24.00;43.69;101407.75;4182413;28;20028;-66
2022/10/16 05:47:38;;;;;;;3.67;3.25;;;;;;;23.99;43.48;101403.28;4190693;28;20094;-66
2022/10/16 05:49:39;;;;;;;4.68;3.08;;;;;;;23.99;43.66;101401.34;4183361;28;20107;-68
2022/10/16 05:51:41;;;;;;;10.68;3.50;;;;;;;23.99;43.41;101400.50;4182056;28;20110;-66
2022/10/16 05:53:43;;;;;;;3.85;2.92;;;;;;;23.99;43.41;101394.91;4198006;28;20032;-68
2022/10/16 05:55:55;;;;;;;6.43;3.10;;;;;;;23.98;43.52;101390.44;4198339;28;20045;-67
2022/10/16 05:57:56;;;;;;;5.03;3.25;;;;;;;23.94;43.85;101386.56;4198202;28;20036;-66
2022/10/16 05:59:57;;;;;;;4.95;2.88;;;;;;;24.00;43.47;101388.19;4196949;28;20040;-68
2022/10/16 06:01:59;;;;;;;4.28;3.05;;;;;;;23.93;43.41;101373.72;4197563;28;20048;-67
2022/10/16 06:04:00;;;;;;;3.90;2.80;;;;;;;23.99;43.33;101392.13;4204959;28;20047;-67
2022/10/16 06:06:12;;;;;;;3.97;2.63;;;;;;;23.98;43.47;101387.66;4214978;28;20036;-65
2022/10/16 06:08:13;;;;;;;3.63;2.38;;;;;;;23.96;43.45;101376.78;4214806;28;20028;-65
2022/10/16 06:10:30;;;;;;;5.07;3.13;;;;;;;22.00;43.61;101108.47;4215087;28;20073;-67
2022/10/16 06:12:34;;;;;;;3.97;3.22;;;;;;;23.96;43.55;101390.75;4210083;28;20082;-68
2022/10/16 06:14:35;;;;;;;3.65;3.10;;;;;;;23.98;43.32;101393.25;4198373;28;20488;-67
2022/10/16 06:16:37;;;;;;;4.03;2.80;;;;;;;23.73;43.54;101344.81;4198784;28;20086;-67
2022/10/16 06:18:39;;;;;;;3.95;2.97;;;;;;;23.97;43.43;101384.03;4198283;28;20098;-68
2022/10/16 06:20:43;;;;;;;3.92;2.90;;;;;;;23.96;43.67;101382.38;4196354;28;20441;-67
2022/10/16 06:22:49;;;;;;;4.60;2.60;;;;;;;23.96;43.52;101385.16;4181974;28;20041;-67
2022/10/16 06:24:51;;;;;;;4.28;2.85;;;;;;;23.98;43.61;101387.66;4187955;28;20686;-66
2022/10/16 06:26:52;;;;;;;5.13;3.20;;;;;;;23.98;43.66;101388.50;4198526;28;20437;-66
2022/10/16 06:28:58;;;;;;;4.55;3.00;;;;;;;23.97;43.47;101381.22;4198718;28;20024;-66
2022/10/16 06:31:05;;;;;;;4.18;2.92;;;;;;;23.97;43.53;101381.22;4198615;28;20058;-66
2022/10/16 06:33:10;;;;;;;4.75;2.75;;;;;;;23.99;43.41;101383.72;4198883;28;20040;-66
2022/10/16 06:35:12;;;;;;;6.28;3.17;;;;;;;23.98;43.47;101382.06;4197770;28;20093;-66
2022/10/16 06:37:13;;;;;;;3.60;3.10;;;;;;;23.99;43.71;101380.94;4195439;28;20110;-66
2022/10/16 06:39:14;;;;;;;5.70;2.97;;;;;;;23.98;43.44;101384.88;4197411;28;20049;-66
2022/10/16 06:41:21;;;;;;;5.93;3.35;;;;;;;23.98;43.37;101371.72;4197517;28;20037;-66
2022/10/16 06:43:22;;;;;;;4.68;3.13;;;;;;;23.86;43.26;101353.63;4189355;28;20105;-66
2022/10/16 06:45:26;;;;;;;3.55;2.90;;;;;;;23.95;43.60;101375.09;4197658;28;20365;-66
2022/10/16 06:47:27;;;;;;;3.95;3.13;;;;;;;23.96;43.46;101373.13;4196911;28;20098;-65
2022/10/16 06:49:29;;;;;;;4.28;3.03;;;;;;;23.91;43.50;101373.16;4197675;28;20037;-66
2022/10/16 06:51:31;;;;;;;4.53;2.97;;;;;;;23.95;43.38;101368.66;4198204;28;20098;-66
2022/10/16 06:53:35;;;;;;;4.72;2.90;;;;;;;23.87;43.48;101358.09;4198104;28;20449;-66
2022/10/16 06:55:36;;;;;;;5.97;3.33;;;;;;;23.94;43.55;101367.81;4197718;28;20471;-66
2022/10/16 06:57:37;;;;;;;5.05;2.97;;;;;;;23.93;43.46;101373.72;4198071;28;20040;-66
2022/10/16 06:59:38;;;;;;;6.57;3.42;;;;;;;23.92;43.42;101372.06;4198507;28;20086;-66
2022/10/16 07:01:40;;;;;;;6.25;3.40;;;;;;;23.92;43.77;101370.09;4196337;28;20437;-66
2022/10/16 07:03:43;;;;;;;4.13;2.92;;;;;;;23.92;43.60;101367.31;4197662;28;20079;-66
2022/10/16 07:05:44;;;;;;;4.07;3.08;;;;;;;23.92;43.48;101372.88;4181130;28;20041;-66
2022/10/16 07:07:46;;;;;;;5.50;2.95;;;;;;;23.93;43.68;101370.94;4181257;28;20110;-66
2022/10/16 07:09:47;;;;;;;5.53;3.15;;;;;;;23.93;43.76;101368.13;4198024;28;20492;-66
2022/10/16 07:11:48;;;;;;;4.57;3.30;;;;;;;23.92;43.70;101366.47;4197598;28;20028;-66
2022/10/16 07:13:51;;;;;;;3.97;3.15;;;;;;;23.91;43.87;101353.59;4196467;28;20036;-66
2022/10/16 07:15:52;;;;;;;3.72;2.95;;;;;;;23.92;43.56;101361.72;4197757;28;20446;-66
2022/10/16 07:17:53;;;;;;;4.80;3.65;;;;;;;23.92;43.56;101355.28;4197530;28;20554;-66
2022/10/16 07:19:55;;;;;;;4.40;3.08;;;;;;;23.90;43.73;101346.34;4197517;28;20048;-66
2022/10/16 07:21:57;;;;;;;4.47;3.30;;;;;;;23.90;43.54;101351.94;4197712;28;20483;-66
2022/10/16 07:24:00;;;;;;;5.72;3.80;;;;;;;23.90;43.71;101349.13;4197462;28;20040;-66
2022/10/16 07:26:03;;;;;;;3.85;3.10;;;;;;;23.91;43.83;101348.00;4197541;28;20106;-66
2022/10/16 07:28:04;;;;;;;4.85;3.47;;;;;;;23.90;43.81;101347.19;4197968;28;20082;-66
2022/10/16 07:30:06;;;;;;;5.18;3.50;;;;;;;23.92;43.60;101341.31;4197178;28;20337;-66
2022/10/16 07:32:07;;;;;;;5.22;3.22;;;;;;;23.92;43.37;101338.53;4197112;28;20446;-66
2022/10/16 07:34:09;;;;;;;3.92;2.90;;;;;;;23.86;43.46;101329.31;4212738;28;20089;-66
2022/10/16 07:36:15;;;;;;;5.13;3.15;;;;;;;23.92;43.43;101346.91;4213949;28;20103;-66
2022/10/16 07:38:17;;;;;;;6.50;3.50;;;;;;;23.91;43.29;101348.00;4211155;28;20471;-66
2022/10/16 07:40:18;;;;;;;5.30;3.05;;;;;;;23.92;43.35;101349.69;4195034;28;20056;-66
2022/10/16 07:42:20;;;;;;;3.63;2.78;;;;;;;23.89;43.73;101353.06;4193547;28;20445;-66
2022/10/16 07:44:21;;;;;;;4.72;3.42;;;;;;;23.91;43.70;101354.44;4195313;28;20040;-66
2022/10/16 07:46:26;;;;;;;4.28;3.45;;;;;;;23.72;43.73;101334.72;4206670;28;20101;-68
2022/10/16 07:48:31;;;;;;;;;;;;;;;23.89;43.51;101353.06;4214257;28;20032;-66
2022/10/16 07:50:32;;;;;;;5.70;3.00;;;;;;;23.87;43.31;101335.72;4212163;28;20354;-66
2022/10/16 07:52:39;;;;;;;5.50;2.97;;;;;;;23.89;43.36;101344.69;4213840;28;20044;-66
2022/10/16 07:54:40;;;;;;;7.18;3.83;;;;;;;23.95;43.50;101349.09;4213566;28;20097;-66
2022/10/16 07:56:41;;;;;;;4.00;3.05;;;;;;;23.84;43.53;101343.59;4214036;28;20036;-66
2022/10/16 07:58:49;;;;;;;4.30;3.45;;;;;;;23.76;43.57;101335.81;4213839;28;20093;-66
2022/10/16 08:00:50;;;;;;;3.83;3.10;;;;;;;23.89;43.51;101358.66;4214113;28;20044;-66
2022/10/16 08:02:52;;;;;;;4.25;3.20;;;;;;;23.90;43.51;101363.94;4197542;28;20121;-66
2022/10/16 08:04:53;;;;;;;4.05;3.30;;;;;;;23.88;43.62;101359.78;4196841;28;20074;-66
2022/10/16 08:06:54;;;;;;;4.72;3.50;;;;;;;23.89;43.72;101372.63;4197229;28;20049;-66
2022/10/16 08:08:56;;;;;;;6.05;3.47;;;;;;;23.88;43.58;101365.38;4197503;28;20078;-66
2022/10/16 08:10:57;;;;;;;3.70;3.00;;;;;;;23.90;43.53;101363.13;4197231;28;20102;-66
2022/10/16 08:13:01;;;;;;;5.30;2.85;;;;;;;23.84;43.72;101365.94;4197566;28;20045;-66
2022/10/16 08:15:03;;;;;;;4.25;3.08;;;;;;;23.87;43.50;101366.47;4196652;28;20090;-66
2022/10/16 08:17:04;;;;;;;4.28;2.92;;;;;;;23.90;43.70;101374.28;4197701;28;20528;-66
2022/10/16 08:19:08;;;;;;;3.20;2.80;;;;;;;23.79;43.57;101356.78;4197069;28;20114;-66
2022/10/16 08:21:15;;;;;;;4.93;3.50;;;;;;;23.88;43.38;101371.81;4197539;28;20028;-66
2022/10/16 08:23:16;;;;;;;4.25;3.53;;;;;;;23.89;43.36;101378.22;4197361;28;20475;-66
2022/10/16 08:25:18;;;;;;;5.13;3.55;;;;;;;23.89;43.35;101379.06;4216543;28;20047;-66
2022/10/16 08:27:22;;;;;;;5.22;3.72;;;;;;;23.87;43.50;101377.66;4216881;28;20156;-66
2022/10/16 08:29:32;;;;;;;5.50;3.95;;;;;;;23.88;43.46;101373.75;4216465;28;20039;-66
2022/10/16 08:31:36;;;;;;;5.20;3.65;;;;;;;23.88;43.57;101370.97;4216773;28;20032;-66
2022/10/16 08:33:38;;;;;;;4.82;3.22;;;;;;;23.86;43.52;101384.38;4216704;28;20040;-66
2022/10/16 08:35:39;;;;;;;5.07;3.72;;;;;;;23.86;43.50;101378.78;4205845;28;20070;-66
2022/10/16 08:37:44;;;;;;;5.30;3.40;;;;;;;23.86;43.45;101378.78;4197842;28;20120;-66
2022/10/16 08:39:45;;;;;;;7.10;3.85;;;;;;;23.86;43.57;101384.38;4200209;28;20054;-66
2022/10/16 08:42:21;;;;;;;3.83;2.85;;;;;;;23.84;43.31;101377.13;4200753;28;20036;-66
2022/10/16 08:44:41;;;;;;;4.53;3.30;;;;;;;23.85;43.60;101372.38;4181223;28;20102;-66
2022/10/16 08:47:10;;;;;;;5.32;3.92;;;;;;;23.68;43.62;101353.19;4194135;28;20094;-66
2022/10/16 08:49:15;;;;;;;6.10;4.00;;;;;;;23.74;43.36;101354.84;4200093;28;20090;-66
2022/10/16 08:51:42;;;;;;;;;;;;;;;23.83;43.48;101363.47;4200597;28;20101;-66
2022/10/16 08:53:46;;;;;;;;;;;;;;;23.90;43.27;101365.91;4196253;28;19924;-66
2022/10/16 08:55:52;;;;;;;4.38;3.20;;;;;;;23.98;43.06;101362.50;4198783;28;19923;-66
2022/10/16 08:57:53;;;;;;;5.78;3.10;;;;;;;23.94;43.28;101373.41;4199912;28;20086;-66
2022/10/16 09:00:00;;;;;;;6.40;3.67;;;;;;;23.79;43.56;101346.44;4198962;28;20052;-66
2022/10/16 09:02:01;;;;;;;5.20;3.60;;;;;;;23.88;43.43;101370.97;4203256;28;20044;-66
2022/10/16 09:04:33;;;;;;;4.68;3.38;;;;;;;23.84;43.50;101365.94;4216381;28;20040;-66
2022/10/16 09:06:44;;;;;;;4.00;3.28;;;;;;;23.86;43.57;101370.41;4216735;28;20482;-65
2022/10/16 09:08:48;;;;;;;4.72;3.47;;;;;;;23.84;43.30;101368.75;4216728;28;20040;-66
2022/10/16 09:10:58;;;;;;;4.43;3.38;;;;;;;23.83;43.53;101363.47;4216577;28;20474;-66
2022/10/16 09:13:17;;;;;;;4.85;3.42;;;;;;;23.82;43.31;101368.22;4183405;28;20040;-66
2022/10/16 09:15:24;;;;;;;4.70;3.55;;;;;;;23.83;43.22;101363.47;4192311;28;20113;-66
2022/10/16 09:17:58;;;;;;;4.75;3.85;;;;;;;23.80;43.34;101376.03;4199666;28;20102;-66
2022/10/16 09:20:29;;;;;;;4.53;3.45;;;;;;;23.80;43.38;101370.44;4198657;28;20040;-66
2022/10/16 09:22:32;;;;;;;5.47;3.50;;;;;;;23.72;43.47;101354.28;4182612;28;20488;-66
2022/10/16 09:24:34;;;;;;;5.80;3.58;;;;;;;23.83;43.32;101381.06;4185345;28;20036;-66
2022/10/16 09:26:35;;;;;;;5.18;3.60;;;;;;;23.78;43.47;101383.06;4199295;28;20106;-66
2022/10/16 09:28:36;;;;;;;5.55;3.67;;;;;;;23.82;43.47;101387.78;4199565;28;20036;-66
2022/10/16 09:30:39;;;;;;;4.82;3.53;;;;;;;23.09;43.26;101281.47;4198596;28;20029;-66
2022/10/16 09:32:45;;;;;;;4.30;2.97;;;;;;;23.76;43.22;101380.53;4198137;28;20093;-66
2022/10/16 09:34:58;;;;;;;4.95;3.55;;;;;;;23.77;43.42;101387.78;4198912;28;20040;-66
2022/10/16 09:37:03;;;;;;;3.88;3.30;;;;;;;23.78;43.38;101386.69;4198509;28;20093;-66
2022/10/16 09:39:11;;;;;;;3.90;2.90;;;;;;;23.78;43.19;101389.47;4198779;28;20071;-66
2022/10/16 09:41:12;;;;;;;5.82;3.25;;;;;;;23.80;43.20;101390.00;4199187;28;20093;-66